sensor_id;sensor_type;location;lat;lon;timestamp;pressure;altitude;pressure_sealevel;temperature;humidity
54455;BME280;40364;52.270;10.546;2023-01-30T00:00:49;100426.66;;;6.53;82.27
54455;BME280;40364;52.270;10.546;2023-01-30T00:03:16;100430.63;;;6.69;80.98
54455;BME280;40364;52.270;10.546;2023-01-30T00:05:45;100409.66;;;6.85;82.62
54455;BME280;40364;52.270;10.546;2023-01-30T00:08:11;100413.75;;;6.96;79.90
54455;BME280;40364;52.270;10.546;2023-01-30T00:10:38;100434.97;;;7.44;74.44
54455;BME280;40364;52.270;10.546;2023-01-30T00:13:05;100413.59;;;6.45;83.91
54455;BME280;40364;52.270;10.546;2023-01-30T00:15:32;100392.44;;;6.49;85.88
54455;BME280;40364;52.270;10.546;2023-01-30T00:17:59;100374.66;;;7.41;82.23
54455;BME280;40364;52.270;10.546;2023-01-30T00:20:25;100367.00;;;7.38;79.77
54455;BME280;40364;52.270;10.546;2023-01-30T00:22:54;100349.72;;;7.24;82.91
54455;BME280;40364;52.270;10.546;2023-01-30T00:25:20;100332.09;;;6.59;86.50
54455;BME280;40364;52.270;10.546;2023-01-30T00:27:47;100324.00;;;7.32;83.03
54455;BME280;40364;52.270;10.546;2023-01-30T00:30:14;100308.69;;;7.00;81.62
54455;BME280;40364;52.270;10.546;2023-01-30T00:32:41;100317.31;;;6.98;83.39
54455;BME280;40364;52.270;10.546;2023-01-30T00:35:08;100334.50;;;7.64;82.06
54455;BME280;40364;52.270;10.546;2023-01-30T00:37:35;100321.41;;;7.91;75.61
54455;BME280;40364;52.270;10.546;2023-01-30T00:40:03;100326.19;;;8.20;77.37
54455;BME280;40364;52.270;10.546;2023-01-30T00:42:30;100334.44;;;8.37;74.78
54455;BME280;40364;52.270;10.546;2023-01-30T00:45:14;100337.13;;;8.54;73.27
54455;BME280;40364;52.270;10.546;2023-01-30T00:47:59;100331.97;;;7.25;81.53
54455;BME280;40364;52.270;10.546;2023-01-30T00:50:26;100323.81;;;6.85;88.55
54455;BME280;40364;52.270;10.546;2023-01-30T00:53:07;100319.59;;;6.88;89.07
54455;BME280;40364;52.270;10.546;2023-01-30T00:55:35;100336.50;;;8.10;79.49
54455;BME280;40364;52.270;10.546;2023-01-30T00:58:02;100324.38;;;7.68;81.13
54455;BME280;40364;52.270;10.546;2023-01-30T01:00:29;100320.88;;;7.25;83.11
54455;BME280;40364;52.270;10.546;2023-01-30T01:02:56;100305.19;;;9.76;65.67
54455;BME280;40364;52.270;10.546;2023-01-30T01:05:23;100280.03;;;9.85;65.07
54455;BME280;40364;52.270;10.546;2023-01-30T01:07:50;100274.81;;;9.96;63.09
54455;BME280;40364;52.270;10.546;2023-01-30T01:10:17;100270.22;;;7.80;76.41
54455;BME280;40364;52.270;10.546;2023-01-30T01:12:45;100262.06;;;9.70;68.08
54455;BME280;40364;52.270;10.546;2023-01-30T01:15:12;100263.56;;;8.31;70.88
54455;BME280;40364;52.270;10.546;2023-01-30T01:17:40;100268.34;;;7.54;82.23
54455;BME280;40364;52.270;10.546;2023-01-30T01:20:09;100266.41;;;9.14;75.04
54455;BME280;40364;52.270;10.546;2023-01-30T01:22:36;100282.09;;;8.77;70.28
54455;BME280;40364;52.270;10.546;2023-01-30T01:25:04;100259.97;;;8.60;74.69
54455;BME280;40364;52.270;10.546;2023-01-30T01:27:30;100262.00;;;7.92;79.19
54455;BME280;40364;52.270;10.546;2023-01-30T01:29:59;100248.03;;;7.33;84.45
54455;BME280;40364;52.270;10.546;2023-01-30T01:32:25;100250.50;;;7.08;86.31
54455;BME280;40364;52.270;10.546;2023-01-30T01:34:52;100238.59;;;7.25;85.41
54455;BME280;40364;52.270;10.546;2023-01-30T01:37:19;100227.81;;;7.32;86.22
54455;BME280;40364;52.270;10.546;2023-01-30T01:39:45;100235.94;;;8.14;82.64
54455;BME280;40364;52.270;10.546;2023-01-30T01:42:33;100220.91;;;7.56;88.97
54455;BME280;40364;52.270;10.546;2023-01-30T01:45:16;100225.69;;;7.76;88.21
54455;BME280;40364;52.270;10.546;2023-01-30T01:47:46;100211.41;;;9.89;71.44
54455;BME280;40364;52.270;10.546;2023-01-30T01:50:17;100194.84;;;9.68;69.97
54455;BME280;40364;52.270;10.546;2023-01-30T01:52:45;100188.22;;;9.85;68.12
54455;BME280;40364;52.270;10.546;2023-01-30T01:55:15;100178.50;;;9.67;68.41
54455;BME280;40364;52.270;10.546;2023-01-30T01:57:46;100187.44;;;10.89;63.87
54455;BME280;40364;52.270;10.546;2023-01-30T02:00:19;100169.72;;;11.72;59.56
54455;BME280;40364;52.270;10.546;2023-01-30T02:02:48;100150.31;;;10.85;64.16
54455;BME280;40364;52.270;10.546;2023-01-30T02:05:18;100149.91;;;10.71;63.21
54455;BME280;40364;52.270;10.546;2023-01-30T02:07:50;100134.97;;;10.11;66.13
54455;BME280;40364;52.270;10.546;2023-01-30T02:10:21;100120.81;;;10.16;65.26
54455;BME280;40364;52.270;10.546;2023-01-30T02:12:50;100122.44;;;10.17;65.20
54455;BME280;40364;52.270;10.546;2023-01-30T02:15:18;100117.22;;;10.84;64.51
54455;BME280;40364;52.270;10.546;2023-01-30T02:17:45;100121.63;;;10.17;66.76
54455;BME280;40364;52.270;10.546;2023-01-30T02:20:20;100123.81;;;10.91;64.59
54455;BME280;40364;52.270;10.546;2023-01-30T02:23:15;100135.38;;;11.37;63.68
54455;BME280;40364;52.270;10.546;2023-01-30T02:29:31;100104.38;;;10.23;73.18
54455;BME280;40364;52.270;10.546;2023-01-30T02:32:06;100112.16;;;10.73;71.19
54455;BME280;40364;52.270;10.546;2023-01-30T02:34:40;100098.78;;;10.79;66.90
54455;BME280;40364;52.270;10.546;2023-01-30T02:37:19;100099.13;;;10.62;70.70
54455;BME280;40364;52.270;10.546;2023-01-30T02:40:04;100095.56;;;10.49;70.97
54455;BME280;40364;52.270;10.546;2023-01-30T02:42:37;100101.75;;;11.30;67.90
54455;BME280;40364;52.270;10.546;2023-01-30T02:45:13;100092.53;;;10.54;70.18
54455;BME280;40364;52.270;10.546;2023-01-30T02:47:47;100100.53;;;11.62;63.83
54455;BME280;40364;52.270;10.546;2023-01-30T02:50:18;100098.31;;;11.36;63.83
54455;BME280;40364;52.270;10.546;2023-01-30T02:52:47;100088.19;;;10.85;64.27
54455;BME280;40364;52.270;10.546;2023-01-30T02:55:18;100073.78;;;11.26;64.58
54455;BME280;40364;52.270;10.546;2023-01-30T02:57:45;100071.94;;;11.34;62.04
54455;BME280;40364;52.270;10.546;2023-01-30T03:00:20;100059.06;;;10.82;65.43
54455;BME280;40364;52.270;10.546;2023-01-30T03:03:04;100067.19;;;11.50;65.16
54455;BME280;40364;52.270;10.546;2023-01-30T03:05:51;100064.84;;;10.89;64.22
54455;BME280;40364;52.270;10.546;2023-01-30T03:08:26;100058.91;;;11.38;64.21
54455;BME280;40364;52.270;10.546;2023-01-30T03:10:57;100051.78;;;11.56;63.36
54455;BME280;40364;52.270;10.546;2023-01-30T03:13:32;100039.84;;;11.40;64.65
54455;BME280;40364;52.270;10.546;2023-01-30T03:16:04;100036.00;;;11.29;65.33
54455;BME280;40364;52.270;10.546;2023-01-30T03:18:33;100050.25;;;11.43;64.30
54455;BME280;40364;52.270;10.546;2023-01-30T03:21:03;100038.47;;;11.50;64.20
54455;BME280;40364;52.270;10.546;2023-01-30T03:23:30;100042.25;;;10.78;65.64
54455;BME280;40364;52.270;10.546;2023-01-30T03:25:57;100036.81;;;11.13;65.87
54455;BME280;40364;52.270;10.546;2023-01-30T03:28:25;100037.53;;;10.95;65.16
54455;BME280;40364;52.270;10.546;2023-01-30T03:30:52;100032.31;;;10.93;67.44
54455;BME280;40364;52.270;10.546;2023-01-30T03:33:19;100021.88;;;10.90;67.17
54455;BME280;40364;52.270;10.546;2023-01-30T03:35:47;100015.19;;;11.42;64.29
54455;BME280;40364;52.270;10.546;2023-01-30T03:38:14;100015.44;;;11.53;63.01
54455;BME280;40364;52.270;10.546;2023-01-30T03:40:41;100009.09;;;11.21;66.23
54455;BME280;40364;52.270;10.546;2023-01-30T03:43:08;100001.97;;;11.39;65.13
54455;BME280;40364;52.270;10.546;2023-01-30T03:45:35;99985.53;;;12.46;59.63
54455;BME280;40364;52.270;10.546;2023-01-30T03:48:02;99988.25;;;12.23;61.58
54455;BME280;40364;52.270;10.546;2023-01-30T03:50:28;99979.72;;;12.35;60.57
54455;BME280;40364;52.270;10.546;2023-01-30T03:52:57;99971.00;;;13.05;58.00
54455;BME280;40364;52.270;10.546;2023-01-30T03:55:23;99969.16;;;12.25;61.20
54455;BME280;40364;52.270;10.546;2023-01-30T03:57:54;99952.06;;;12.07;65.63
54455;BME280;40364;52.270;10.546;2023-01-30T04:00:21;99958.78;;;12.26;65.90
54455;BME280;40364;52.270;10.546;2023-01-30T04:02:48;99942.44;;;12.05;66.91
54455;BME280;40364;52.270;10.546;2023-01-30T04:05:15;99967.44;;;12.40;67.07
54455;BME280;40364;52.270;10.546;2023-01-30T04:07:42;99965.44;;;11.44;76.47
54455;BME280;40364;52.270;10.546;2023-01-30T04:10:10;99961.75;;;11.94;72.49
54455;BME280;40364;52.270;10.546;2023-01-30T04:12:39;99962.56;;;13.02;66.48
54455;BME280;40364;52.270;10.546;2023-01-30T04:15:07;99953.47;;;11.98;73.46
54455;BME280;40364;52.270;10.546;2023-01-30T04:17:34;99950.94;;;12.54;68.24
54455;BME280;40364;52.270;10.546;2023-01-30T04:20:00;99953.75;;;12.77;69.50
54455;BME280;40364;52.270;10.546;2023-01-30T04:22:27;99952.09;;;12.50;69.06
54455;BME280;40364;52.270;10.546;2023-01-30T04:24:54;99958.91;;;11.91;74.57
54455;BME280;40364;52.270;10.546;2023-01-30T04:27:22;99939.31;;;11.52;78.30
54455;BME280;40364;52.270;10.546;2023-01-30T04:29:49;99932.34;;;10.92;79.64
54455;BME280;40364;52.270;10.546;2023-01-30T04:32:15;99942.66;;;11.77;73.83
54455;BME280;40364;52.270;10.546;2023-01-30T04:34:42;99938.44;;;11.13;78.66
54455;BME280;40364;52.270;10.546;2023-01-30T04:37:09;99931.09;;;10.89;80.34
54455;BME280;40364;52.270;10.546;2023-01-30T04:39:36;99944.03;;;11.67;76.41
54455;BME280;40364;52.270;10.546;2023-01-30T04:42:03;99948.78;;;11.67;78.10
54455;BME280;40364;52.270;10.546;2023-01-30T04:44:31;99931.88;;;12.37;74.03
54455;BME280;40364;52.270;10.546;2023-01-30T04:46:58;99943.09;;;11.25;78.53
54455;BME280;40364;52.270;10.546;2023-01-30T04:49:25;99940.22;;;11.75;76.27
54455;BME280;40364;52.270;10.546;2023-01-30T04:51:52;99933.16;;;11.62;76.54
54455;BME280;40364;52.270;10.546;2023-01-30T04:54:19;99923.47;;;10.86;81.19
54455;BME280;40364;52.270;10.546;2023-01-30T04:56:45;99907.16;;;12.85;71.48
54455;BME280;40364;52.270;10.546;2023-01-30T04:59:12;99925.06;;;12.34;71.52
54455;BME280;40364;52.270;10.546;2023-01-30T05:01:40;99915.38;;;11.86;76.48
54455;BME280;40364;52.270;10.546;2023-01-30T05:04:07;99903.84;;;11.88;73.96
54455;BME280;40364;52.270;10.546;2023-01-30T05:06:34;99902.28;;;11.90;76.54
54455;BME280;40364;52.270;10.546;2023-01-30T05:09:01;99890.81;;;11.76;76.13
54455;BME280;40364;52.270;10.546;2023-01-30T05:11:29;99885.44;;;10.94;86.59
54455;BME280;40364;52.270;10.546;2023-01-30T05:13:56;99872.25;;;11.84;81.33
54455;BME280;40364;52.270;10.546;2023-01-30T05:16:24;99878.94;;;12.21;78.38
54455;BME280;40364;52.270;10.546;2023-01-30T05:18:53;99881.97;;;12.12;79.01
54455;BME280;40364;52.270;10.546;2023-01-30T05:21:21;99868.63;;;12.71;77.21
54455;BME280;40364;52.270;10.546;2023-01-30T05:23:50;99878.94;;;11.79;79.90
54455;BME280;40364;52.270;10.546;2023-01-30T05:26:17;99874.41;;;12.85;71.84
54455;BME280;40364;52.270;10.546;2023-01-30T05:28:49;99867.13;;;11.86;83.42
54455;BME280;40364;52.270;10.546;2023-01-30T05:31:16;99862.50;;;14.11;67.48
54455;BME280;40364;52.270;10.546;2023-01-30T05:33:46;99837.81;;;12.94;76.07
54455;BME280;40364;52.270;10.546;2023-01-30T05:36:15;99835.56;;;12.27;80.26
54455;BME280;40364;52.270;10.546;2023-01-30T05:38:43;99845.97;;;11.85;83.61
54455;BME280;40364;52.270;10.546;2023-01-30T05:41:12;99837.44;;;12.69;76.09
54455;BME280;40364;52.270;10.546;2023-01-30T05:43:39;99843.13;;;12.50;78.70
54455;BME280;40364;52.270;10.546;2023-01-30T05:46:06;99836.47;;;13.10;75.34
54455;BME280;40364;52.270;10.546;2023-01-30T05:48:32;99836.50;;;12.12;80.08
54455;BME280;40364;52.270;10.546;2023-01-30T05:51:00;99838.81;;;12.56;77.19
54455;BME280;40364;52.270;10.546;2023-01-30T05:53:29;99843.41;;;13.50;71.72
54455;BME280;40364;52.270;10.546;2023-01-30T05:55:57;99831.91;;;13.59;71.28
54455;BME280;40364;52.270;10.546;2023-01-30T05:58:24;99843.25;;;13.69;69.92
54455;BME280;40364;52.270;10.546;2023-01-30T06:00:51;99842.22;;;12.95;76.61
54455;BME280;40364;52.270;10.546;2023-01-30T06:03:18;99840.44;;;13.36;69.94
54455;BME280;40364;52.270;10.546;2023-01-30T06:05:45;99842.84;;;12.81;74.62
54455;BME280;40364;52.270;10.546;2023-01-30T06:08:11;99850.63;;;14.25;66.34
54455;BME280;40364;52.270;10.546;2023-01-30T06:10:39;99847.44;;;14.71;64.89
54455;BME280;40364;52.270;10.546;2023-01-30T06:13:06;99836.59;;;12.91;76.19
54455;BME280;40364;52.270;10.546;2023-01-30T06:15:35;99840.28;;;13.55;69.57
54455;BME280;40364;52.270;10.546;2023-01-30T06:18:02;99834.97;;;13.17;73.15
54455;BME280;40364;52.270;10.546;2023-01-30T06:20:29;99818.50;;;12.81;77.01
54455;BME280;40364;52.270;10.546;2023-01-30T06:22:55;99823.59;;;12.76;77.01
54455;BME280;40364;52.270;10.546;2023-01-30T06:25:22;99839.38;;;12.65;77.28
54455;BME280;40364;52.270;10.546;2023-01-30T06:27:50;99826.91;;;12.85;78.90
54455;BME280;40364;52.270;10.546;2023-01-30T06:30:17;99831.22;;;12.79;77.65
54455;BME280;40364;52.270;10.546;2023-01-30T06:32:44;99819.38;;;12.36;79.88
54455;BME280;40364;52.270;10.546;2023-01-30T06:35:15;99823.34;;;12.88;76.75
54455;BME280;40364;52.270;10.546;2023-01-30T06:37:43;99822.81;;;13.65;72.74
54455;BME280;40364;52.270;10.546;2023-01-30T06:40:11;99821.75;;;12.87;77.64
54455;BME280;40364;52.270;10.546;2023-01-30T06:42:38;99835.53;;;13.59;70.89
54455;BME280;40364;52.270;10.546;2023-01-30T06:45:07;99819.63;;;14.04;69.56
54455;BME280;40364;52.270;10.546;2023-01-30T06:47:43;99833.47;;;10.66;97.36
54455;BME280;40364;52.270;10.546;2023-01-30T06:50:10;99843.41;;;11.02;99.25
54455;BME280;40364;52.270;10.546;2023-01-30T06:52:39;99841.19;;;10.57;100.00
54455;BME280;40364;52.270;10.546;2023-01-30T06:55:07;99843.78;;;10.66;100.00
54455;BME280;40364;52.270;10.546;2023-01-30T06:57:34;99846.47;;;10.46;100.00
54455;BME280;40364;52.270;10.546;2023-01-30T07:00:01;99860.66;;;10.73;98.88
54455;BME280;40364;52.270;10.546;2023-01-30T07:02:29;99861.41;;;10.70;100.00
54455;BME280;40364;52.270;10.546;2023-01-30T07:04:59;99863.22;;;10.31;100.00
54455;BME280;40364;52.270;10.546;2023-01-30T07:07:26;99865.47;;;10.13;100.00
54455;BME280;40364;52.270;10.546;2023-01-30T07:09:53;99864.47;;;10.33;100.00
54455;BME280;40364;52.270;10.546;2023-01-30T07:12:20;99881.13;;;10.96;98.59
54455;BME280;40364;52.270;10.546;2023-01-30T07:14:46;99868.13;;;10.53;100.00
54455;BME280;40364;52.270;10.546;2023-01-30T07:17:13;99882.88;;;10.38;100.00
54455;BME280;40364;52.270;10.546;2023-01-30T07:19:42;99889.56;;;10.05;100.00
54455;BME280;40364;52.270;10.546;2023-01-30T07:22:09;99873.84;;;10.13;100.00
54455;BME280;40364;52.270;10.546;2023-01-30T07:24:35;99881.41;;;10.44;100.00
54455;BME280;40364;52.270;10.546;2023-01-30T07:27:02;99879.63;;;10.52;100.00
54455;BME280;40364;52.270;10.546;2023-01-30T07:29:29;99883.59;;;10.66;100.00
54455;BME280;40364;52.270;10.546;2023-01-30T07:31:56;99885.38;;;10.43;100.00
54455;BME280;40364;52.270;10.546;2023-01-30T07:34:23;99890.59;;;10.29;100.00
54455;BME280;40364;52.270;10.546;2023-01-30T07:36:51;99885.66;;;10.38;100.00
54455;BME280;40364;52.270;10.546;2023-01-30T07:39:17;99883.69;;;10.38;100.00
54455;BME280;40364;52.270;10.546;2023-01-30T07:41:45;99889.06;;;10.31;100.00
54455;BME280;40364;52.270;10.546;2023-01-30T07:44:12;99898.84;;;10.41;100.00
54455;BME280;40364;52.270;10.546;2023-01-30T07:46:39;99893.19;;;9.94;100.00
54455;BME280;40364;52.270;10.546;2023-01-30T07:49:08;99898.50;;;10.58;99.59
54455;BME280;40364;52.270;10.546;2023-01-30T07:51:34;99904.44;;;10.57;98.84
54455;BME280;40364;52.270;10.546;2023-01-30T07:54:03;99898.22;;;10.63;99.28
54455;BME280;40364;52.270;10.546;2023-01-30T07:56:30;99895.13;;;10.05;100.00
54455;BME280;40364;52.270;10.546;2023-01-30T07:58:57;99914.41;;;10.14;95.97
54455;BME280;40364;52.270;10.546;2023-01-30T08:01:24;99896.81;;;10.10;97.37
54455;BME280;40364;52.270;10.546;2023-01-30T08:03:50;99893.53;;;10.20;96.99
54455;BME280;40364;52.270;10.546;2023-01-30T08:06:17;99911.50;;;10.23;94.38
54455;BME280;40364;52.270;10.546;2023-01-30T08:08:44;99904.97;;;10.46;93.37
54455;BME280;40364;52.270;10.546;2023-01-30T08:11:12;99907.38;;;10.48;93.56
54455;BME280;40364;52.270;10.546;2023-01-30T08:13:39;99903.31;;;10.93;88.29
54455;BME280;40364;52.270;10.546;2023-01-30T08:16:06;99908.00;;;11.59;81.72
54455;BME280;40364;52.270;10.546;2023-01-30T08:18:34;99919.81;;;11.01;87.08
54455;BME280;40364;52.270;10.546;2023-01-30T08:21:02;99920.25;;;12.12;79.23
54455;BME280;40364;52.270;10.546;2023-01-30T08:23:31;99905.88;;;11.91;80.83
54455;BME280;40364;52.270;10.546;2023-01-30T08:26:02;99907.72;;;11.83;80.06
54455;BME280;40364;52.270;10.546;2023-01-30T08:28:32;99903.22;;;11.59;80.59
54455;BME280;40364;52.270;10.546;2023-01-30T08:30:58;99920.81;;;11.63;81.53
54455;BME280;40364;52.270;10.546;2023-01-30T08:33:26;99918.31;;;11.39;84.72
54455;BME280;40364;52.270;10.546;2023-01-30T08:35:54;99907.72;;;11.83;81.37
54455;BME280;40364;52.270;10.546;2023-01-30T08:38:21;99909.16;;;12.16;78.26
54455;BME280;40364;52.270;10.546;2023-01-30T08:40:48;99915.34;;;11.32;83.44
54455;BME280;40364;52.270;10.546;2023-01-30T08:43:24;99919.50;;;12.15;78.35
54455;BME280;40364;52.270;10.546;2023-01-30T08:45:53;99926.97;;;12.30;73.47
54455;BME280;40364;52.270;10.546;2023-01-30T08:48:20;99922.22;;;11.54;74.50
54455;BME280;40364;52.270;10.546;2023-01-30T08:50:49;99931.69;;;11.49;72.73
54455;BME280;40364;52.270;10.546;2023-01-30T08:53:16;99918.19;;;11.51;73.43
54455;BME280;40364;52.270;10.546;2023-01-30T08:55:43;99927.47;;;11.04;74.18
54455;BME280;40364;52.270;10.546;2023-01-30T08:58:09;99922.69;;;11.05;75.17
54455;BME280;40364;52.270;10.546;2023-01-30T09:00:56;99922.78;;;11.43;72.85
54455;BME280;40364;52.270;10.546;2023-01-30T09:03:34;99932.44;;;10.79;72.98
54455;BME280;40364;52.270;10.546;2023-01-30T09:06:01;99930.94;;;10.66;72.63
54455;BME280;40364;52.270;10.546;2023-01-30T09:08:33;99929.81;;;11.02;71.79
54455;BME280;40364;52.270;10.546;2023-01-30T09:11:01;99926.88;;;11.85;67.58
54455;BME280;40364;52.270;10.546;2023-01-30T09:13:28;99924.84;;;11.27;70.58
54455;BME280;40364;52.270;10.546;2023-01-30T09:15:57;99933.94;;;11.78;68.37
54455;BME280;40364;52.270;10.546;2023-01-30T09:18:24;99932.94;;;11.17;70.73
54455;BME280;40364;52.270;10.546;2023-01-30T09:20:51;99926.25;;;11.56;68.69
54455;BME280;40364;52.270;10.546;2023-01-30T09:23:18;99928.91;;;12.07;65.64
54455;BME280;40364;52.270;10.546;2023-01-30T09:25:56;99920.72;;;12.37;64.29
54455;BME280;40364;52.270;10.546;2023-01-30T09:28:37;99938.72;;;11.43;65.89
54455;BME280;40364;52.270;10.546;2023-01-30T09:31:05;99931.13;;;12.17;65.11
54455;BME280;40364;52.270;10.546;2023-01-30T09:33:32;99930.97;;;11.52;65.30
54455;BME280;40364;52.270;10.546;2023-01-30T09:35:59;99934.94;;;12.09;64.78
54455;BME280;40364;52.270;10.546;2023-01-30T09:38:26;99939.28;;;12.48;62.71
54455;BME280;40364;52.270;10.546;2023-01-30T09:41:03;99930.69;;;11.96;64.63
54455;BME280;40364;52.270;10.546;2023-01-30T09:43:41;99931.75;;;12.30;64.60
54455;BME280;40364;52.270;10.546;2023-01-30T09:46:21;99930.31;;;11.97;66.88
54455;BME280;40364;52.270;10.546;2023-01-30T09:48:56;99929.72;;;11.50;67.21
54455;BME280;40364;52.270;10.546;2023-01-30T09:51:34;99927.91;;;11.96;66.07
54455;BME280;40364;52.270;10.546;2023-01-30T09:54:18;99925.63;;;11.82;66.61
54455;BME280;40364;52.270;10.546;2023-01-30T09:56:57;99929.78;;;12.76;62.68
54455;BME280;40364;52.270;10.546;2023-01-30T09:59:30;99923.91;;;12.85;60.70
54455;BME280;40364;52.270;10.546;2023-01-30T10:02:20;99922.59;;;11.71;63.61
54455;BME280;40364;52.270;10.546;2023-01-30T10:04:49;99917.94;;;14.32;55.70
54455;BME280;40364;52.270;10.546;2023-01-30T10:07:25;99913.03;;;13.02;57.49
54455;BME280;40364;52.270;10.546;2023-01-30T10:09:58;99908.22;;;15.76;50.13
54455;BME280;40364;52.270;10.546;2023-01-30T10:12:39;99910.69;;;15.20;50.12
54455;BME280;40364;52.270;10.546;2023-01-30T10:15:19;99912.03;;;14.85;51.06
54455;BME280;40364;52.270;10.546;2023-01-30T10:18:00;99905.66;;;14.88;50.48
54455;BME280;40364;52.270;10.546;2023-01-30T10:20:39;99922.59;;;15.61;49.14
54455;BME280;40364;52.270;10.546;2023-01-30T10:23:33;99909.41;;;15.72;48.99
54455;BME280;40364;52.270;10.546;2023-01-30T10:26:09;99914.06;;;15.46;49.48
54455;BME280;40364;52.270;10.546;2023-01-30T10:28:38;99900.78;;;16.37;47.44
54455;BME280;40364;52.270;10.546;2023-01-30T10:31:10;99890.22;;;15.15;48.51
54455;BME280;40364;52.270;10.546;2023-01-30T10:33:42;99904.59;;;15.72;47.85
54455;BME280;40364;52.270;10.546;2023-01-30T10:36:13;99901.06;;;14.62;48.82
54455;BME280;40364;52.270;10.546;2023-01-30T10:38:44;99907.00;;;15.70;47.16
54455;BME280;40364;52.270;10.546;2023-01-30T10:41:18;99915.22;;;16.25;45.70
54455;BME280;40364;52.270;10.546;2023-01-30T10:43:54;99909.50;;;15.90;45.31
54455;BME280;40364;52.270;10.546;2023-01-30T10:46:34;99897.13;;;16.23;45.31
54455;BME280;40364;52.270;10.546;2023-01-30T10:49:10;99896.50;;;15.60;46.53
54455;BME280;40364;52.270;10.546;2023-01-30T10:51:49;99889.06;;;16.00;45.67
54455;BME280;40364;52.270;10.546;2023-01-30T10:54:23;99899.03;;;15.83;45.61
54455;BME280;40364;52.270;10.546;2023-01-30T10:56:58;99885.88;;;16.12;45.42
54455;BME280;40364;52.270;10.546;2023-01-30T10:59:36;99884.78;;;16.66;43.28
54455;BME280;40364;52.270;10.546;2023-01-30T11:02:15;99900.81;;;16.59;43.25
54455;BME280;40364;52.270;10.546;2023-01-30T11:04:56;99887.50;;;16.09;45.36
54455;BME280;40364;52.270;10.546;2023-01-30T11:07:23;99884.19;;;15.79;46.01
54455;BME280;40364;52.270;10.546;2023-01-30T11:09:50;99881.41;;;15.90;45.38
54455;BME280;40364;52.270;10.546;2023-01-30T11:12:17;99886.47;;;12.40;52.81
54455;BME280;40364;52.270;10.546;2023-01-30T11:14:59;99884.06;;;13.14;53.50
54455;BME280;40364;52.270;10.546;2023-01-30T11:17:31;99869.81;;;15.19;48.55
54455;BME280;40364;52.270;10.546;2023-01-30T11:20:06;99877.44;;;12.99;54.07
54455;BME280;40364;52.270;10.546;2023-01-30T11:22:34;99857.66;;;14.05;50.50
54455;BME280;40364;52.270;10.546;2023-01-30T11:25:04;99862.34;;;14.38;48.94
54455;BME280;40364;52.270;10.546;2023-01-30T11:27:32;99858.31;;;13.95;49.22
54455;BME280;40364;52.270;10.546;2023-01-30T11:30:08;99860.66;;;14.67;48.39
54455;BME280;40364;52.270;10.546;2023-01-30T11:32:37;99842.13;;;13.77;50.26
54455;BME280;40364;52.270;10.546;2023-01-30T11:35:19;99837.34;;;13.78;50.36
54455;BME280;40364;52.270;10.546;2023-01-30T11:37:48;99847.75;;;13.44;50.79
54455;BME280;40364;52.270;10.546;2023-01-30T11:40:22;99860.25;;;12.25;54.63
54455;BME280;40364;52.270;10.546;2023-01-30T11:42:52;99854.78;;;12.55;55.30
54455;BME280;40364;52.270;10.546;2023-01-30T11:45:23;99857.78;;;12.43;58.02
54455;BME280;40364;52.270;10.546;2023-01-30T11:47:53;99846.00;;;12.53;55.91
54455;BME280;40364;52.270;10.546;2023-01-30T11:50:26;99855.84;;;13.23;54.53
54455;BME280;40364;52.270;10.546;2023-01-30T11:52:54;99860.66;;;13.26;53.82
54455;BME280;40364;52.270;10.546;2023-01-30T11:55:21;99850.56;;;11.96;55.43
54455;BME280;40364;52.270;10.546;2023-01-30T11:57:49;99854.06;;;12.35;55.52
54455;BME280;40364;52.270;10.546;2023-01-30T12:00:19;99847.13;;;13.28;52.08
54455;BME280;40364;52.270;10.546;2023-01-30T12:02:48;99851.56;;;12.07;58.08
54455;BME280;40364;52.270;10.546;2023-01-30T12:05:23;99846.47;;;12.85;57.07
54455;BME280;40364;52.270;10.546;2023-01-30T12:07:51;99836.41;;;11.86;58.36
54455;BME280;40364;52.270;10.546;2023-01-30T12:10:27;99834.06;;;12.33;58.76
54455;BME280;40364;52.270;10.546;2023-01-30T12:12:55;99825.34;;;12.12;61.55
54455;BME280;40364;52.270;10.546;2023-01-30T12:15:25;99829.53;;;12.02;61.92
54455;BME280;40364;52.270;10.546;2023-01-30T12:17:57;99823.78;;;13.46;56.90
54455;BME280;40364;52.270;10.546;2023-01-30T12:20:41;99819.81;;;12.38;61.16
54455;BME280;40364;52.270;10.546;2023-01-30T12:23:14;99796.44;;;13.66;56.53
54455;BME280;40364;52.270;10.546;2023-01-30T12:25:49;99827.56;;;15.66;50.76
54455;BME280;40364;52.270;10.546;2023-01-30T12:28:19;99808.94;;;15.23;50.51
54455;BME280;40364;52.270;10.546;2023-01-30T12:30:53;99813.44;;;14.76;52.18
54455;BME280;40364;52.270;10.546;2023-01-30T12:33:25;99806.97;;;11.69;62.81
54455;BME280;40364;52.270;10.546;2023-01-30T12:36:04;99816.69;;;11.98;66.58
54455;BME280;40364;52.270;10.546;2023-01-30T12:39:04;99793.81;;;11.69;79.15
54455;BME280;40364;52.270;10.546;2023-01-30T12:41:54;99799.56;;;12.71;74.67
54455;BME280;40364;52.270;10.546;2023-01-30T12:44:30;99791.09;;;12.15;79.17
54455;BME280;40364;52.270;10.546;2023-01-30T12:47:34;99803.22;;;12.49;75.96
54455;BME280;40364;52.270;10.546;2023-01-30T12:50:14;99828.94;;;11.90;77.42
54455;BME280;40364;52.270;10.546;2023-01-30T12:59:00;99826.81;;;14.45;57.23
54455;BME280;40364;52.270;10.546;2023-01-30T13:01:35;99841.41;;;15.24;53.35
54455;BME280;40364;52.270;10.546;2023-01-30T13:04:12;99850.84;;;14.46;53.21
54455;BME280;40364;52.270;10.546;2023-01-30T13:06:56;99843.38;;;12.41;64.43
54455;BME280;40364;52.270;10.546;2023-01-30T13:09:37;99860.34;;;12.52;64.16
54455;BME280;40364;52.270;10.546;2023-01-30T13:12:12;99827.22;;;14.07;56.33
54455;BME280;40364;52.270;10.546;2023-01-30T13:14:51;99848.09;;;15.05;52.51